Time;durP1;ratioP1;P1;durP2;ratioP2;P2;SDS_P1;SDS_P2;PMS_P1;PMS_P2;Temp;Humidity;BMP_temperature;BMP_pressure;BME280_temperature;BME280_humidity;BME280_pressure;Samples;Min_cycle;Max_cycle;Signal;HPM_P1;HPM_P2
2023/03/17 00:00:34;;;;;;;3.30;3.00;;;;;;;4.62;87.59;96363.06;5071873;28;20219;-55
2023/03/17 00:03:02;;;;;;;3.30;3.00;;;;;;;4.56;87.81;96364.38;5071431;28;20209;-54
2023/03/17 00:05:31;;;;;;;3.93;2.93;;;;;;;4.48;88.84;96361.47;5070603;28;20207;-54
2023/03/17 00:08:01;;;;;;;3.07;2.80;;;;;;;4.53;88.16;96364.59;5072473;28;20512;-54
2023/03/17 00:10:28;;;;;;;3.07;2.87;;;;;;;4.55;88.78;96354.00;5072614;28;20210;-53
2023/03/17 00:12:55;;;;;;;2.70;2.57;;;;;;;4.59;88.20;96353.66;5072448;28;20214;-54
2023/03/17 00:15:22;;;;;;;2.80;2.60;;;;;;;4.60;87.66;96357.97;5071432;28;20211;-55
2023/03/17 00:17:49;;;;;;;3.27;3.00;;;;;;;4.47;88.10;96351.94;5070796;28;20199;-54
2023/03/17 00:20:28;;;;;;;3.07;2.77;;;;;;;4.53;87.35;96350.66;5070977;28;20222;-55
2023/03/17 00:22:56;;;;;;;3.03;2.83;;;;;;;4.51;87.72;96348.16;5071271;28;20240;-54
2023/03/17 00:25:24;;;;;;;3.07;2.80;;;;;;;4.51;88.70;96348.97;5071314;28;20323;-55
2023/03/17 00:27:52;;;;;;;3.20;3.00;;;;;;;4.46;89.29;96353.72;5070875;28;20206;-53
2023/03/17 00:30:20;;;;;;;3.33;3.03;;;;;;;4.43;88.99;96355.72;5070232;28;20238;-54
2023/03/17 00:32:47;;;;;;;4.23;3.37;;;;;;;4.37;89.92;96350.94;5070694;28;20190;-55
2023/03/17 00:35:20;;;;;;;3.20;2.70;;;;;;;4.27;90.20;96360.41;5070505;28;20213;-56
2023/03/17 00:37:49;;;;;;;3.20;2.90;;;;;;;4.34;89.74;96356.41;5071625;28;20206;-53
2023/03/17 00:40:17;;;;;;;3.17;2.80;;;;;;;4.24;90.46;96360.66;5070107;28;20202;-54
2023/03/17 00:42:44;;;;;;;5.17;3.27;;;;;;;4.11;90.72;96365.91;5071458;28;20209;-55
2023/03/17 00:45:11;;;;;;;3.93;3.30;;;;;;;4.10;91.07;96364.25;5070563;28;20206;-54
2023/03/17 00:47:37;;;;;;;5.07;3.60;;;;;;;4.02;92.03;96361.34;5071480;28;20240;-55
2023/03/17 00:50:05;;;;;;;7.30;3.53;;;;;;;4.15;90.69;96363.91;5070363;28;20694;-53
2023/03/17 00:52:32;;;;;;;3.97;3.10;;;;;;;4.06;93.17;96364.59;5071113;28;20241;-53
2023/03/17 00:54:59;;;;;;;3.27;3.07;;;;;;;4.16;92.00;96362.97;5070338;28;20669;-54
2023/03/17 00:57:26;;;;;;;3.37;3.07;;;;;;;4.10;93.14;96355.56;5071113;28;20214;-54
2023/03/17 00:59:53;;;;;;;3.07;2.87;;;;;;;4.07;93.53;96347.94;5070979;28;20210;-53
2023/03/17 01:02:19;;;;;;;3.23;3.03;;;;;;;4.08;93.81;96350.44;5070601;28;20210;-55
2023/03/17 01:04:45;;;;;;;5.83;3.27;;;;;;;4.10;93.31;96339.88;5070993;28;20225;-54
2023/03/17 01:07:13;;;;;;;3.27;3.07;;;;;;;4.08;92.54;96336.53;5070731;28;20209;-53
2023/03/17 01:09:39;;;;;;;3.53;3.23;;;;;;;3.98;93.54;96337.19;5070762;28;20210;-55
2023/03/17 01:12:11;;;;;;;3.80;3.30;;;;;;;3.93;94.14;96330.63;5070502;28;20624;-55
2023/03/17 01:14:37;;;;;;;3.60;3.30;;;;;;;3.88;95.25;96337.97;5070742;28;20198;-54
2023/03/17 01:17:06;;;;;;;3.40;3.10;;;;;;;3.93;95.13;96344.53;5069826;28;20207;-55
2023/03/17 01:19:32;;;;;;;6.27;3.30;;;;;;;3.93;95.10;96336.69;5071169;28;20217;-53
2023/03/17 01:21:59;;;;;;;3.40;3.20;;;;;;;3.95;95.02;96331.34;5070646;28;21621;-53
2023/03/17 01:24:27;;;;;;;3.50;3.20;;;;;;;3.88;95.70;96333.56;5071104;28;20202;-55
2023/03/17 01:26:53;;;;;;;3.20;3.00;;;;;;;3.95;95.01;96333.97;5070268;28;20309;-53
2023/03/17 01:29:21;;;;;;;3.07;2.87;;;;;;;3.95;95.64;96341.81;5070652;28;20202;-54
2023/03/17 01:31:48;;;;;;;3.30;3.10;;;;;;;3.92;96.79;96340.25;5070176;28;20226;-55
2023/03/17 01:34:14;;;;;;;3.87;3.17;;;;;;;3.99;95.84;96336.25;5070559;28;20343;-54
2023/03/17 01:36:40;;;;;;;3.33;3.00;;;;;;;3.84;96.52;96329.50;5069959;28;20207;-54
2023/03/17 01:39:07;;;;;;;3.50;3.20;;;;;;;3.85;96.57;96327.72;5070041;28;20203;-54
2023/03/17 01:41:34;;;;;;;3.13;2.93;;;;;;;3.91;96.57;96328.13;5069667;28;20190;-55
2023/03/17 01:44:01;;;;;;;5.27;3.57;;;;;;;3.88;97.55;96317.88;5070711;28;20206;-55
2023/03/17 01:46:30;;;;;;;3.83;3.43;;;;;;;3.92;96.78;96319.34;5069869;28;20794;-55
2023/03/17 01:49:10;;;;;;;3.37;3.03;;;;;;;3.88;97.35;96310.03;5068527;28;20283;-53
2023/03/17 01:51:39;;;;;;;4.13;3.30;;;;;;;3.71;98.34;96304.34;5069800;28;20211;-53
2023/03/17 01:54:09;;;;;;;4.97;3.50;;;;;;;3.62;99.01;96292.75;5069881;28;20217;-54
2023/03/17 01:56:36;;;;;;;3.17;2.87;;;;;;;3.74;98.90;96304.13;5070280;28;20213;-53
2023/03/17 01:59:06;;;;;;;3.63;3.20;;;;;;;3.74;98.85;96299.72;5069635;28;20198;-53
2023/03/17 02:01:37;;;;;;;4.07;3.43;;;;;;;3.73;99.03;96302.44;5071233;28;20202;-55
2023/03/17 02:04:05;;;;;;;4.90;3.40;;;;;;;3.71;99.20;96305.19;5071599;28;20211;-54
2023/03/17 02:06:32;;;;;;;5.30;3.10;;;;;;;3.69;99.25;96307.06;5071785;28;20207;-55
2023/03/17 02:09:00;;;;;;;3.03;2.73;;;;;;;3.71;99.08;96309.56;5069922;28;20210;-54
2023/03/17 02:11:27;;;;;;;5.00;3.27;;;;;;;3.77;98.51;96312.56;5069436;28;20299;-53
2023/03/17 02:13:53;;;;;;;3.50;3.10;;;;;;;3.65;100.00;96302.16;5069990;28;20581;-54
2023/03/17 02:16:20;;;;;;;3.70;3.40;;;;;;;3.57;99.99;96310.56;5070084;28;20203;-53
2023/03/17 02:18:48;;;;;;;3.07;2.80;;;;;;;3.65;98.90;96315.25;5069738;28;20222;-55
2023/03/17 02:21:32;;;;;;;5.67;3.13;;;;;;;3.63;99.81;96301.44;5069098;28;20191;-54
2023/03/17 02:24:01;;;;;;;3.80;3.07;;;;;;;3.60;98.39;96302.50;5069458;28;20191;-54
2023/03/17 02:26:28;;;;;;;3.43;3.17;;;;;;;3.54;100.00;96310.78;5069816;28;20198;-55
2023/03/17 02:28:55;;;;;;;3.70;2.80;;;;;;;3.45;99.93;96309.63;5071207;28;20209;-54
2023/03/17 02:31:24;;;;;;;3.83;3.50;;;;;;;3.48;100.00;96303.34;5072308;28;21568;-54
2023/03/17 02:33:51;;;;;;;3.17;2.80;;;;;;;3.48;100.00;96300.72;5073785;28;20203;-55
2023/03/17 02:36:17;;;;;;;3.57;3.27;;;;;;;3.50;100.00;96298.88;5072616;28;20202;-55
2023/03/17 02:38:45;;;;;;;3.47;3.17;;;;;;;3.43;100.00;96297.63;5072491;28;20206;-54
2023/03/17 02:41:11;;;;;;;4.87;3.10;;;;;;;3.44;100.00;96297.50;5072428;28;20210;-55
2023/03/17 02:43:40;;;;;;;3.20;2.90;;;;;;;3.37;100.00;96300.66;5072442;28;20643;-54
2023/03/17 02:46:06;;;;;;;3.80;3.07;;;;;;;3.37;100.00;96300.66;5072430;28;20210;-55
2023/03/17 02:48:34;;;;;;;3.63;3.33;;;;;;;3.28;100.00;96296.06;5072960;28;20202;-53
2023/03/17 02:51:00;;;;;;;3.43;3.20;;;;;;;3.35;100.00;96299.94;5070861;28;20683;-55
2023/03/17 02:53:27;;;;;;;3.83;3.53;;;;;;;3.41;100.00;96295.09;5072540;28;20205;-54
2023/03/17 02:55:55;;;;;;;3.67;3.23;;;;;;;3.42;100.00;96298.56;5072523;28;20207;-55
2023/03/17 02:58:21;;;;;;;3.47;3.10;;;;;;;3.43;100.00;96301.09;5072842;28;20220;-55
2023/03/17 03:00:48;;;;;;;4.20;3.80;;;;;;;3.48;100.00;96303.34;5072801;28;20203;-53
2023/03/17 03:03:15;;;;;;;4.00;3.07;;;;;;;3.54;100.00;96296.88;5071985;28;20260;-55
2023/03/17 03:05:41;;;;;;;3.80;3.50;;;;;;;3.55;100.00;96298.50;5072021;28;20194;-55
2023/03/17 03:08:08;;;;;;;4.10;3.40;;;;;;;3.49;100.00;96299.81;5073052;28;20210;-54
2023/03/17 03:10:35;;;;;;;3.57;3.27;;;;;;;3.45;100.00;96303.56;5072348;28;20217;-54
2023/03/17 03:13:02;;;;;;;3.97;3.53;;;;;;;3.42;100.00;96302.00;5072633;28;20217;-54
2023/03/17 03:15:29;;;;;;;3.60;3.30;;;;;;;3.42;100.00;96298.56;5072336;28;20233;-53
2023/03/17 03:17:55;;;;;;;4.20;3.20;;;;;;;3.55;100.00;96307.19;5072610;28;20662;-55
2023/03/17 03:20:22;;;;;;;4.27;3.70;;;;;;;3.53;100.00;96305.66;5071845;28;20631;-55
2023/03/17 03:22:48;;;;;;;3.60;3.30;;;;;;;3.50;100.00;96310.16;5072666;28;20244;-54
2023/03/17 03:25:14;;;;;;;3.50;3.20;;;;;;;3.56;100.00;96310.66;5071914;28;20280;-53
2023/03/17 03:27:41;;;;;;;3.27;2.97;;;;;;;3.52;100.00;96304.81;5072618;28;20207;-54
2023/03/17 03:30:10;;;;;;;3.83;3.50;;;;;;;3.53;100.00;96301.25;5071568;28;21400;-53
2023/03/17 03:32:37;;;;;;;4.10;3.40;;;;;;;3.42;100.00;96309.00;5072042;28;20226;-54
2023/03/17 03:35:04;;;;;;;3.87;3.43;;;;;;;3.42;100.00;96316.84;5072092;28;20517;-55
2023/03/17 03:37:31;;;;;;;3.87;3.47;;;;;;;3.38;100.00;96318.84;5071626;28;21397;-53
2023/03/17 03:39:57;;;;;;;3.40;3.10;;;;;;;3.38;100.00;96320.63;5070897;28;20651;-55
2023/03/17 03:42:24;;;;;;;3.80;3.50;;;;;;;3.46;100.00;96319.16;5071638;28;20213;-54
2023/03/17 03:44:51;;;;;;;3.40;3.20;;;;;;;3.47;100.00;96306.94;5072079;28;20209;-55
2023/03/17 03:47:19;;;;;;;3.90;3.53;;;;;;;3.36;100.00;96309.44;5071778;28;20256;-54
2023/03/17 03:49:45;;;;;;;3.77;3.50;;;;;;;3.42;100.00;96309.00;5071756;28;20242;-54
2023/03/17 03:52:12;;;;;;;3.40;3.10;;;;;;;3.42;100.00;96324.69;5070944;28;20229;-55
2023/03/17 03:54:39;;;;;;;3.33;3.13;;;;;;;3.43;100.00;96315.91;5071527;28;20194;-55
2023/03/17 03:57:05;;;;;;;4.23;3.83;;;;;;;3.48;100.00;96326.88;5077797;28;20215;-54
2023/03/17 03:59:32;;;;;;;3.90;3.60;;;;;;;3.40;100.00;96331.81;5078628;28;20213;-54
2023/03/17 04:01:59;;;;;;;5.13;4.63;;;;;;;3.40;100.00;96326.59;5078500;28;20202;-54
2023/03/17 04:04:26;;;;;;;3.70;3.40;;;;;;;3.42;100.00;96314.25;5076391;28;20206;-53
2023/03/17 04:06:53;;;;;;;4.43;3.33;;;;;;;3.39;100.00;96309.22;5075291;28;20206;-53
2023/03/17 04:09:19;;;;;;;3.53;3.23;;;;;;;3.42;100.00;96298.56;5076592;28;20558;-54
2023/03/17 04:11:46;;;;;;;4.37;3.60;;;;;;;3.44;100.00;96299.28;5076509;28;20317;-55
2023/03/17 04:14:12;;;;;;;3.60;3.30;;;;;;;3.40;100.00;96306.50;5075342;28;20210;-55
2023/03/17 04:16:39;;;;;;;3.80;3.17;;;;;;;3.42;100.00;96309.00;5075586;28;20276;-53
2023/03/17 04:19:06;;;;;;;4.77;4.30;;;;;;;3.40;100.00;96305.69;5071144;28;20206;-53
2023/03/17 04:21:34;;;;;;;4.30;3.90;;;;;;;3.42;100.00;96307.25;5071278;28;20543;-54
2023/03/17 04:24:00;;;;;;;3.73;3.43;;;;;;;3.42;100.00;96302.00;5070545;28;20210;-53
2023/03/17 04:26:26;;;;;;;4.47;3.63;;;;;;;3.48;100.00;96298.13;5071912;28;20202;-55
2023/03/17 04:28:53;;;;;;;3.93;3.63;;;;;;;3.28;100.00;96296.91;5073996;28;20210;-55
2023/03/17 04:31:20;;;;;;;4.63;3.67;;;;;;;3.40;100.00;96303.88;5080347;28;20222;-54
2023/03/17 04:33:46;;;;;;;4.00;3.60;;;;;;;3.31;100.00;96306.31;5079227;28;20210;-54
2023/03/17 04:36:18;;;;;;;3.93;3.53;;;;;;;3.34;100.00;96306.09;5074734;28;20311;-53
2023/03/17 04:38:46;;;;;;;5.17;4.37;;;;;;;3.36;100.00;96309.44;5079274;28;20198;-55
2023/03/17 04:41:13;;;;;;;6.30;4.47;;;;;;;3.39;100.00;96309.22;5078628;28;20218;-53
2023/03/17 04:43:40;;;;;;;4.90;4.00;;;;;;;3.40;100.00;96303.06;5075735;28;20210;-54
2023/03/17 04:46:06;;;;;;;4.10;3.70;;;;;;;3.37;100.00;96303.25;5076155;28;20217;-55
2023/03/17 04:48:33;;;;;;;5.00;3.90;;;;;;;3.31;100.00;96307.16;5074121;28;20264;-53
2023/03/17 04:50:59;;;;;;;4.70;4.20;;;;;;;3.31;100.00;96290.63;5076235;28;20202;-54
2023/03/17 04:53:26;;;;;;;4.20;3.80;;;;;;;3.33;100.00;96296.59;5071898;28;20230;-55
2023/03/17 04:55:53;;;;;;;4.13;3.83;;;;;;;3.20;100.00;96287.94;5071438;28;20199;-54
2023/03/17 04:58:20;;;;;;;4.30;3.93;;;;;;;3.23;100.00;96290.31;5071414;28;20198;-53
2023/03/17 05:00:47;;;;;;;4.07;3.77;;;;;;;3.26;100.00;96287.53;5071334;28;20234;-55
2023/03/17 05:03:13;;;;;;;4.37;3.97;;;;;;;3.20;100.00;96287.94;5070363;28;20206;-54
2023/03/17 05:05:40;;;;;;;4.67;4.20;;;;;;;3.21;100.00;96287.00;5070166;28;20206;-54
2023/03/17 05:08:06;;;;;;;4.87;4.37;;;;;;;3.10;100.00;96286.91;5070639;28;20224;-55
2023/03/17 05:10:32;;;;;;;7.60;4.07;;;;;;;3.09;100.00;96293.06;5070374;28;20566;-53
2023/03/17 05:13:01;;;;;;;5.03;4.10;;;;;;;3.07;100.00;96297.56;5070722;28;20226;-54
2023/03/17 05:15:28;;;;;;;4.63;4.13;;;;;;;3.01;100.00;96294.44;5069534;28;20206;-55
2023/03/17 05:17:54;;;;;;;6.50;3.90;;;;;;;3.03;100.00;96307.41;5070219;28;20209;-54
2023/03/17 05:20:21;;;;;;;5.00;4.37;;;;;;;3.07;100.00;96298.41;5073183;28;20214;-54
2023/03/17 05:22:47;;;;;;;5.27;4.50;;;;;;;3.02;100.00;96305.72;5074180;28;20206;-53
2023/03/17 05:25:15;;;;;;;5.90;4.17;;;;;;;2.96;100.00;96306.97;5073284;28;20228;-55
2023/03/17 05:27:42;;;;;;;5.33;4.30;;;;;;;3.04;100.00;96305.63;5073965;28;20205;-54
2023/03/17 05:30:12;;;;;;;5.07;4.33;;;;;;;2.98;100.00;96309.47;5071943;28;20565;-54
2023/03/17 05:32:39;;;;;;;4.77;4.33;;;;;;;2.85;100.00;96312.09;5072399;28;20280;-55
2023/03/17 05:35:06;;;;;;;5.63;4.67;;;;;;;2.92;100.00;96305.53;5072509;28;20210;-54
2023/03/17 05:37:32;;;;;;;4.40;4.00;;;;;;;2.96;100.00;96306.97;5071477;28;20265;-54
2023/03/17 05:39:59;;;;;;;4.63;4.13;;;;;;;3.00;100.00;96302.38;5071535;28;20209;-54
2023/03/17 05:42:26;;;;;;;4.83;4.00;;;;;;;3.03;100.00;96311.78;5070290;28;20194;-53
2023/03/17 05:44:52;;;;;;;4.47;4.07;;;;;;;3.04;100.00;96308.22;5070282;28;20268;-55
2023/03/17 05:47:20;;;;;;;4.30;3.90;;;;;;;3.06;100.00;96311.56;5070526;28;20214;-53
2023/03/17 05:49:46;;;;;;;4.37;3.97;;;;;;;3.13;100.00;96307.59;5069667;28;20259;-53
2023/03/17 05:52:13;;;;;;;4.80;4.40;;;;;;;3.09;100.00;96312.19;5069146;28;20670;-54
2023/03/17 05:54:39;;;;;;;5.53;4.20;;;;;;;3.14;100.00;96317.09;5070784;28;20210;-54
2023/03/17 05:57:06;;;;;;;5.93;4.90;;;;;;;3.14;100.00;96311.88;5069776;28;20225;-54
2023/03/17 05:59:33;;;;;;;4.87;4.37;;;;;;;3.19;100.00;96312.41;5069633;28;20220;-55
2023/03/17 06:02:00;;;;;;;4.77;4.37;;;;;;;3.25;100.00;96320.66;5069949;28;20332;-55
2023/03/17 06:04:28;;;;;;;5.67;4.53;;;;;;;3.30;100.00;96313.31;5072711;28;20207;-55
2023/03/17 06:06:54;;;;;;;5.13;4.40;;;;;;;3.22;100.00;96292.13;5073905;28;20213;-54
2023/03/17 06:09:21;;;;;;;6.33;4.73;;;;;;;3.35;100.00;96294.72;5074033;28;20205;-55
2023/03/17 06:11:47;;;;;;;5.47;4.50;;;;;;;3.42;100.00;96288.94;5073804;28;20264;-55
2023/03/17 06:14:13;;;;;;;4.87;4.37;;;;;;;3.57;100.00;96287.03;5073634;28;20692;-54
2023/03/17 06:16:41;;;;;;;5.87;5.20;;;;;;;3.56;100.00;96284.50;5073196;28;20207;-54
2023/03/17 06:19:08;;;;;;;5.67;4.40;;;;;;;3.68;100.00;96288.88;5074713;28;20213;-51
2023/03/17 06:21:36;;;;;;;4.80;4.40;;;;;;;4.08;99.22;96289.41;5072727;28;20207;-52
2023/03/17 06:24:02;;;;;;;7.17;5.07;;;;;;;4.62;97.72;96287.97;5073139;28;20207;-55
2023/03/17 06:26:28;;;;;;;6.53;4.53;;;;;;;5.05;93.60;96287.31;5072132;28;20615;-52
2023/03/17 06:28:55;;;;;;;5.30;4.80;;;;;;;5.89;91.30;96287.63;5073491;28;20202;-52
2023/03/17 06:31:22;;;;;;;6.73;6.07;;;;;;;6.52;84.40;96299.94;5073867;28;20222;-54
2023/03/17 06:33:49;;;;;;;5.90;5.23;;;;;;;6.98;81.79;96299.53;5072585;28;20679;-53
2023/03/17 06:36:16;;;;;;;5.27;4.70;;;;;;;7.63;79.33;96307.06;5072454;28;20203;-54
2023/03/17 06:38:44;;;;;;;6.13;4.57;;;;;;;7.94;77.22;96311.31;5072988;28;20228;-53
2023/03/17 06:41:11;;;;;;;5.97;4.60;;;;;;;8.32;73.57;96301.84;5073750;28;20210;-52
2023/03/17 06:43:37;;;;;;;6.70;4.43;;;;;;;9.04;71.75;96304.00;5073761;28;20201;-53
2023/03/17 06:46:04;;;;;;;6.47;4.77;;;;;;;9.81;67.62;96310.69;5072975;28;20198;-54
2023/03/17 06:48:31;;;;;;;5.33;4.30;;;;;;;9.94;65.19;96324.41;5070817;28;20268;-53
2023/03/17 06:50:58;;;;;;;7.50;4.47;;;;;;;10.44;64.46;96327.50;5073811;28;20210;-54
2023/03/17 06:53:25;;;;;;;7.17;4.40;;;;;;;10.77;61.80;96333.91;5081380;28;20222;-54
2023/03/17 06:55:52;;;;;;;5.40;3.60;;;;;;;10.74;62.47;96328.91;5086461;28;20228;-54
2023/03/17 06:58:20;;;;;;;5.20;4.00;;;;;;;10.49;63.99;96327.84;5088909;28;20505;-54
2023/03/17 07:00:47;;;;;;;5.15;3.85;;;;;;;9.91;64.58;96327.34;5079635;28;20293;-53
2023/03/17 07:03:14;;;;;;;4.30;3.90;;;;;;;9.71;65.50;96330.19;5073607;28;20294;-54
2023/03/17 07:05:40;;;;;;;4.60;3.83;;;;;;;9.58;66.08;96327.91;5073893;28;20267;-53
2023/03/17 07:08:08;;;;;;;7.10;4.00;;;;;;;9.11;68.58;96318.31;5073010;28;20203;-54
2023/03/17 07:10:35;;;;;;;5.70;4.07;;;;;;;9.23;67.11;96312.75;5072621;28;20190;-53
2023/03/17 07:13:04;;;;;;;4.20;3.83;;;;;;;8.55;71.19;96312.94;5072687;28;20244;-54
2023/03/17 07:15:33;;;;;;;5.10;4.57;;;;;;;8.43;70.56;96312.28;5070447;28;21437;-52
2023/03/17 07:18:00;;;;;;;4.10;3.73;;;;;;;8.37;70.70;96323.34;5071941;28;20206;-52
2023/03/17 07:20:26;;;;;;;4.37;4.00;;;;;;;8.18;71.47;96328.56;5072147;28;20218;-53
2023/03/17 07:22:53;;;;;;;4.23;3.93;;;;;;;7.87;74.80;96320.72;5073503;28;20199;-52
2023/03/17 07:25:19;;;;;;;7.03;4.20;;;;;;;7.72;75.60;96322.03;5073071;28;20211;-53
2023/03/17 07:27:46;;;;;;;7.50;4.30;;;;;;;7.70;73.79;96325.78;5072974;28;20225;-52
2023/03/17 07:30:17;;;;;;;5.30;4.70;;;;;;;7.52;78.33;96320.31;5073162;28;20260;-54
2023/03/17 07:32:44;;;;;;;7.10;4.77;;;;;;;7.57;76.31;96319.94;5072544;28;20214;-52
2023/03/17 07:35:10;;;;;;;10.03;4.90;;;;;;;7.57;76.29;96323.41;5071978;28;20199;-52
2023/03/17 07:37:37;;;;;;;4.67;4.20;;;;;;;7.60;75.48;96322.28;5073002;28;20320;-52
2023/03/17 07:40:05;;;;;;;5.87;4.57;;;;;;;7.63;76.10;96324.66;5072389;28;20555;-54
2023/03/17 07:42:32;;;;;;;4.63;4.23;;;;;;;7.66;76.89;96327.00;5072628;28;20203;-53
2023/03/17 07:44:59;;;;;;;5.03;4.40;;;;;;;7.71;75.23;96319.56;5072008;28;20256;-51
2023/03/17 07:47:27;;;;;;;6.90;4.43;;;;;;;7.86;75.63;96321.72;5071396;28;20223;-54
2023/03/17 07:49:53;;;;;;;6.30;4.67;;;;;;;7.78;77.02;96311.00;5070938;28;20242;-53
2023/03/17 07:52:20;;;;;;;5.73;5.10;;;;;;;7.85;76.73;96317.41;5071788;28;20199;-52
2023/03/17 07:54:46;;;;;;;7.70;4.77;;;;;;;7.96;75.78;96322.56;5071442;28;20202;-52
2023/03/17 07:57:15;;;;;;;7.17;4.50;;;;;;;8.03;76.99;96312.31;5070383;28;20537;-53
2023/03/17 07:59:42;;;;;;;5.17;4.63;;;;;;;8.05;74.68;96317.44;5071459;28;20213;-53
2023/03/17 08:02:13;;;;;;;7.67;4.90;;;;;;;8.09;75.12;96317.03;5071737;28;20206;-54
2023/03/17 08:04:41;;;;;;;4.73;4.30;;;;;;;8.24;74.31;96302.50;5072473;28;20213;-52
2023/03/17 08:07:09;;;;;;;5.13;4.73;;;;;;;8.35;73.36;96310.31;5070388;28;20206;-54
2023/03/17 08:09:36;;;;;;;7.77;4.70;;;;;;;8.31;71.68;96316.81;5072641;28;20195;-55
2023/03/17 08:12:02;;;;;;;6.00;4.83;;;;;;;8.36;71.71;96319.06;5070078;28;20195;-53
2023/03/17 08:14:29;;;;;;;5.13;4.63;;;;;;;8.34;71.49;96308.66;5071448;28;20222;-56
2023/03/17 08:16:56;;;;;;;5.40;4.90;;;;;;;8.49;69.45;96302.00;5069875;28;20217;-55
2023/03/17 08:19:23;;;;;;;11.40;6.27;;;;;;;8.64;71.01;96304.22;5071898;28;20213;-54
2023/03/17 08:21:51;;;;;;;6.33;4.90;;;;;;;8.76;70.92;96298.66;5071186;28;20199;-54
2023/03/17 08:24:17;;;;;;;8.20;5.50;;;;;;;8.79;70.32;96300.16;5070902;28;20229;-53
2023/03/17 08:26:47;;;;;;;7.17;5.30;;;;;;;8.85;69.72;96297.00;5070253;28;20206;-52
2023/03/17 08:29:14;;;;;;;6.90;5.40;;;;;;;9.00;70.16;96299.03;5071223;28;20198;-53
2023/03/17 08:31:40;;;;;;;6.83;5.37;;;;;;;9.07;70.96;96296.66;5071283;28;20194;-54
2023/03/17 08:34:07;;;;;;;6.20;5.60;;;;;;;9.17;69.08;96296.66;5070598;28;20237;-53
2023/03/17 08:36:34;;;;;;;6.93;5.70;;;;;;;9.22;70.56;96294.41;5069992;28;20218;-54
2023/03/17 08:39:02;;;;;;;6.13;5.53;;;;;;;9.32;69.98;96295.19;5070103;28;20210;-53
2023/03/17 08:41:31;;;;;;;6.40;5.73;;;;;;;9.52;69.93;96302.09;5071510;28;20203;-53
2023/03/17 08:43:58;;;;;;;7.83;6.07;;;;;;;9.59;69.16;96287.34;5071690;28;20225;-54
2023/03/17 08:46:27;;;;;;;8.33;5.90;;;;;;;9.71;67.05;96288.78;5071374;28;20319;-54
2023/03/17 08:48:56;;;;;;;5.90;5.40;;;;;;;9.87;69.18;96288.16;5069746;28;20252;-53
2023/03/17 08:51:24;;;;;;;6.73;5.50;;;;;;;9.88;68.21;96287.19;5071287;28;20202;-54
2023/03/17 08:53:51;;;;;;;7.67;5.53;;;;;;;9.98;67.51;96290.63;5070565;28;20317;-54
2023/03/17 08:56:19;;;;;;;5.60;5.10;;;;;;;9.98;65.62;96280.88;5071027;28;20205;-52
2023/03/17 08:58:46;;;;;;;6.83;5.60;;;;;;;10.01;64.92;96277.09;5072109;28;20203;-53
2023/03/17 09:01:13;;;;;;;6.27;5.23;;;;;;;10.25;65.13;96279.19;5072583;28;20878;-55
2023/03/17 09:03:44;;;;;;;6.60;5.20;;;;;;;10.34;64.31;96283.59;5070793;28;20221;-55
2023/03/17 09:06:12;;;;;;;6.27;5.50;;;;;;;10.63;64.41;96275.44;5092644;28;20251;-57
2023/03/17 09:08:43;;;;;;;7.63;5.60;;;;;;;10.92;64.09;96274.19;5094471;28;20195;-58
2023/03/17 09:11:17;;;;;;;5.97;5.37;;;;;;;11.16;62.48;96270.88;5072261;28;20206;-53
2023/03/17 09:13:46;;;;;;;5.77;5.27;;;;;;;11.31;60.36;96279.91;5071191;28;20206;-55
2023/03/17 09:16:13;;;;;;;7.60;5.67;;;;;;;11.46;59.52;96278.34;5070734;28;20568;-55
2023/03/17 09:18:39;;;;;;;8.20;5.47;;;;;;;11.71;58.82;96275.84;5070489;28;20217;-54
2023/03/17 09:21:08;;;;;;;6.40;5.80;;;;;;;12.03;57.69;96267.19;5070783;28;20221;-54
2023/03/17 09:23:35;;;;;;;5.80;5.17;;;;;;;12.18;57.46;96265.59;5088764;28;20269;-54
2023/03/17 09:26:02;;;;;;;10.03;5.63;;;;;;;12.30;57.16;96272.22;5083114;28;20202;-54
2023/03/17 09:28:29;;;;;;;6.23;5.10;;;;;;;12.63;55.87;96258.03;5080233;28;20202;-55
2023/03/17 09:31:00;;;;;;;6.37;5.27;;;;;;;12.80;54.50;96257.03;5071942;28;20271;-55
2023/03/17 09:33:27;;;;;;;5.43;4.93;;;;;;;13.20;55.23;96271.31;5071222;28;20309;-54
2023/03/17 09:35:55;;;;;;;5.77;4.60;;;;;;;13.58;54.36;96264.41;5070108;28;20225;-55
2023/03/17 09:38:22;;;;;;;6.10;5.50;;;;;;;13.81;51.96;96263.50;5071668;28;21276;-55
2023/03/17 09:40:52;;;;;;;6.57;5.70;;;;;;;14.12;52.76;96260.03;5074749;28;20602;-53
2023/03/17 09:43:26;;;;;;;8.38;5.20;;;;;;;14.27;51.21;96255.66;5075234;28;20205;-54
2023/03/17 09:45:53;;;;;;;5.47;4.97;;;;;;;14.84;52.14;96256.13;5073915;28;20214;-53
2023/03/17 09:48:43;;;;;;;5.53;4.93;;;;;;;15.16;49.38;96253.13;5073788;28;20289;-54
2023/03/17 09:51:10;;;;;;;9.27;5.45;;;;;;;15.36;48.44;96253.47;5077728;28;20206;-53
2023/03/17 09:53:43;;;;;;;11.10;5.68;;;;;;;15.13;49.13;96242.84;5074573;28;20218;-53
2023/03/17 09:56:12;;;;;;;6.65;5.53;;;;;;;15.45;49.72;96241.69;5075673;28;20198;-53
2023/03/17 09:58:40;;;;;;;7.72;5.90;;;;;;;15.39;48.60;96243.28;5082423;28;20195;-53
2023/03/17 10:01:09;;;;;;;6.90;6.10;;;;;;;15.35;48.50;96246.47;5076349;28;20530;-54
2023/03/17 10:03:36;;;;;;;8.20;5.75;;;;;;;15.39;48.03;96243.28;5074338;28;20210;-55
2023/03/17 10:06:18;;;;;;;6.20;5.45;;;;;;;15.02;49.46;96229.97;5071559;28;20628;-54
2023/03/17 10:08:51;;;;;;;7.38;6.10;;;;;;;15.03;49.14;96239.63;5074218;28;20229;-54
2023/03/17 10:11:24;;;;;;;7.30;5.75;;;;;;;15.21;50.49;96231.28;5073790;28;20194;-53
2023/03/17 10:13:54;;;;;;;6.68;5.97;;;;;;;15.33;52.18;96233.34;5074453;28;20272;-53
2023/03/17 10:16:26;;;;;;;6.95;5.50;;;;;;;15.23;50.41;96230.09;5072819;28;20668;-53
2023/03/17 10:18:55;;;;;;;6.95;5.40;;;;;;;15.31;49.00;96229.19;5073363;28;20222;-55
2023/03/17 10:21:28;;;;;;;7.72;5.93;;;;;;;15.34;50.30;96226.16;5073412;28;20546;-54
2023/03/17 10:23:56;;;;;;;8.80;6.45;;;;;;;15.26;49.75;96228.94;5074104;28;20201;-54
2023/03/17 10:26:27;;;;;;;9.93;6.10;;;;;;;15.07;49.86;96219.63;5074654;28;20210;-53
2023/03/17 10:28:54;;;;;;;8.05;6.43;;;;;;;15.23;50.42;96224.78;5074580;28;20194;-53
2023/03/17 10:31:27;;;;;;;9.98;5.88;;;;;;;15.65;49.23;96220.72;5073183;28;20214;-55
2023/03/17 10:33:56;;;;;;;10.95;6.03;;;;;;;15.78;50.12;96216.38;5073792;28;20306;-54
2023/03/17 10:36:36;;;;;;;8.98;6.05;;;;;;;15.96;49.01;96212.47;5073193;28;20199;-53
2023/03/17 10:39:05;;;;;;;6.35;5.68;;;;;;;15.92;48.46;96204.03;5076481;28;20615;-53
2023/03/17 10:41:33;;;;;;;8.32;5.90;;;;;;;15.90;48.71;96204.22;5092620;28;20202;-54
2023/03/17 10:43:59;;;;;;;7.35;5.43;;;;;;;16.11;47.95;96199.94;5091382;28;20194;-54
2023/03/17 10:46:28;;;;;;;6.22;5.63;;;;;;;16.36;47.88;96198.59;5090064;28;20233;-55
2023/03/17 10:48:57;;;;;;;5.35;4.75;;;;;;;16.46;46.76;96193.75;5091822;28;20242;-54
2023/03/17 10:51:30;;;;;;;6.88;4.55;;;;;;;16.48;46.56;96202.38;5080992;28;20217;-56
2023/03/17 10:54:00;;;;;;;5.97;4.88;;;;;;;16.76;45.53;96200.63;5076124;28;20309;-51
2023/03/17 10:56:28;;;;;;;3.78;3.47;;;;;;;16.99;44.61;96192.41;5078234;28;20241;-52
2023/03/17 10:58:55;;;;;;;3.65;3.35;;;;;;;17.17;43.00;96190.09;5077982;28;20211;-52
2023/03/17 11:01:24;;;;;;;5.55;3.50;;;;;;;17.24;42.88;96193.63;5075894;28;20206;-53
2023/03/17 11:03:53;;;;;;;3.80;3.50;;;;;;;17.44;44.17;96199.09;5071543;28;20289;-52
2023/03/17 11:06:24;;;;;;;3.97;3.38;;;;;;;17.36;42.68;96193.91;5071474;28;20272;-52
2023/03/17 11:08:53;;;;;;;4.63;3.72;;;;;;;17.22;42.41;96179.63;5071070;28;20203;-53
2023/03/17 11:11:29;;;;;;;3.78;3.47;;;;;;;17.12;42.58;96183.66;5072131;28;20278;-52
2023/03/17 11:14:02;;;;;;;3.38;3.08;;;;;;;17.24;43.36;96182.13;5072799;28;20305;-53
2023/03/17 11:16:28;;;;;;;3.70;3.40;;;;;;;17.23;42.36;96181.28;5072253;28;20521;-53
2023/03/17 11:18:57;;;;;;;4.97;3.55;;;;;;;17.35;42.85;96182.41;5072583;28;20214;-54
2023/03/17 11:21:27;;;;;;;3.60;3.30;;;;;;;16.98;42.69;96179.25;5072554;28;20207;-53
2023/03/17 11:23:59;;;;;;;4.97;3.30;;;;;;;17.03;42.64;96164.31;5072569;28;20332;-53
2023/03/17 11:26:37;;;;;;;3.75;3.45;;;;;;;17.26;44.10;96164.84;5071330;28;20304;-53
2023/03/17 11:29:26;;;;;;;4.32;3.10;;;;;;;17.76;42.83;96161.06;5072560;28;20209;-52
2023/03/17 11:32:00;;;;;;;3.92;3.53;;;;;;;17.94;41.71;96154.31;5072463;28;20206;-52
2023/03/17 11:34:34;;;;;;;4.50;3.67;;;;;;;18.13;41.98;96140.19;5073080;28;20218;-52
2023/03/17 11:37:05;;;;;;;4.30;3.38;;;;;;;18.61;42.05;96139.06;5072945;28;20248;-52
2023/03/17 11:39:40;;;;;;;3.33;3.03;;;;;;;19.11;41.73;96131.41;5073210;28;20298;-53